createdAt,value
2023-05-23T00:00:20.538Z,5.10
2023-05-23T00:02:48.790Z,6.55
2023-05-23T00:05:17.950Z,5.47
2023-05-23T00:07:46.384Z,2.42
2023-05-23T00:10:15.785Z,3.38
2023-05-23T00:12:43.762Z,4.78
2023-05-23T00:15:12.201Z,4.57
2023-05-23T00:17:40.324Z,6.65
2023-05-23T00:20:10.975Z,4.28
2023-05-23T00:22:42.958Z,6.43
2023-05-23T00:25:12.115Z,4.35
2023-05-23T00:27:41.464Z,11.63
2023-05-23T00:30:10.333Z,6.07
2023-05-23T00:32:38.383Z,11.77
2023-05-23T00:35:08.033Z,2.88
2023-05-23T00:37:36.064Z,8.18
2023-05-23T00:40:04.098Z,6.30
2023-05-23T00:42:32.861Z,4.22
2023-05-23T00:45:02.336Z,6.03
2023-05-23T00:47:30.833Z,4.15
2023-05-23T00:49:59.203Z,4.93
2023-05-23T00:52:27.461Z,4.78
2023-05-23T00:54:55.774Z,7.00
2023-05-23T00:57:24.144Z,5.35
2023-05-23T00:59:52.999Z,5.88
2023-05-23T01:02:22.775Z,6.43
2023-05-23T01:04:54.341Z,5.57
2023-05-23T01:07:22.785Z,7.80
2023-05-23T01:09:51.370Z,4.72
2023-05-23T01:12:30.647Z,5.40
2023-05-23T01:15:08.613Z,5.75
2023-05-23T01:17:51.016Z,7.07
2023-05-23T01:20:24.657Z,6.53
2023-05-23T01:23:15.371Z,5.37
2023-05-23T01:26:08.591Z,5.22
2023-05-23T01:28:44.572Z,3.17
2023-05-23T01:31:14.165Z,4.22
2023-05-23T01:33:43.037Z,3.83
2023-05-23T01:36:15.317Z,4.20
2023-05-23T01:38:43.266Z,7.72
2023-05-23T01:41:11.596Z,5.13
2023-05-23T01:43:41.207Z,7.00
2023-05-23T01:46:10.455Z,5.10
2023-05-23T01:48:41.070Z,6.53
2023-05-23T01:51:09.422Z,5.35
2023-05-23T01:53:38.741Z,4.18
2023-05-23T01:56:07.335Z,5.35
2023-05-23T01:58:35.432Z,7.15
2023-05-23T02:01:05.538Z,4.07
2023-05-23T02:03:33.901Z,5.18
2023-05-23T02:06:01.916Z,5.70
2023-05-23T02:08:30.096Z,11.18
2023-05-23T02:10:58.188Z,5.47
2023-05-23T02:13:26.174Z,5.53
2023-05-23T02:15:54.224Z,6.32
2023-05-23T02:18:26.224Z,9.23
2023-05-23T02:20:54.756Z,6.63
2023-05-23T02:23:22.872Z,9.63
2023-05-23T02:25:50.900Z,5.13
2023-05-23T02:28:18.894Z,13.75
2023-05-23T02:30:47.453Z,7.50
2023-05-23T02:33:16.693Z,4.28
2023-05-23T02:35:46.085Z,6.55
2023-05-23T02:38:14.297Z,6.03
2023-05-23T02:40:42.230Z,4.82
2023-05-23T02:43:10.232Z,9.65
2023-05-23T02:45:38.389Z,6.57
2023-05-23T02:48:06.539Z,6.38
2023-05-23T02:50:34.741Z,5.45
2023-05-23T02:53:04.449Z,6.25
2023-05-23T02:55:32.848Z,7.40
2023-05-23T02:58:00.784Z,6.68
2023-05-23T03:00:28.913Z,6.82
2023-05-23T03:02:57.402Z,5.53
2023-05-23T03:05:25.662Z,5.40
2023-05-23T03:07:54.498Z,7.07
2023-05-23T03:10:23.885Z,3.88
2023-05-23T03:12:51.829Z,5.55
2023-05-23T03:15:20.323Z,6.28
2023-05-23T03:17:48.341Z,8.95
2023-05-23T03:20:16.320Z,8.45
2023-05-23T03:22:45.583Z,7.65
2023-05-23T03:25:13.830Z,5.78
2023-05-23T03:27:43.127Z,5.72
2023-05-23T03:30:12.635Z,9.23
2023-05-23T03:32:41.309Z,5.90
2023-05-23T03:35:11.488Z,4.45
2023-05-23T03:37:39.512Z,6.93
2023-05-23T03:40:09.765Z,5.78
2023-05-23T03:42:38.319Z,7.13
2023-05-23T03:45:08.749Z,9.50
2023-05-23T03:47:36.824Z,5.65
2023-05-23T03:50:05.745Z,6.07
2023-05-23T03:52:33.639Z,5.70
2023-05-23T03:55:01.606Z,5.63
2023-05-23T03:57:29.746Z,7.47
2023-05-23T03:59:57.709Z,5.35
2023-05-23T04:02:27.061Z,21.85
2023-05-23T04:04:56.971Z,6.60
2023-05-23T04:07:26.481Z,6.68
2023-05-23T04:09:54.481Z,4.65
2023-05-23T04:12:22.702Z,5.68
2023-05-23T04:14:50.711Z,7.40
2023-05-23T04:17:18.955Z,5.78
2023-05-23T04:19:48.268Z,8.25
2023-05-23T04:22:16.299Z,5.93
2023-05-23T04:24:44.382Z,7.35
2023-05-23T04:27:13.659Z,5.38
2023-05-23T04:29:41.848Z,8.85
2023-05-23T04:32:09.872Z,5.82
2023-05-23T04:34:38.406Z,5.68
2023-05-23T04:37:09.566Z,5.07
2023-05-23T04:39:38.441Z,9.13
2023-05-23T04:42:07.422Z,5.95
2023-05-23T04:44:37.477Z,10.05
2023-05-23T04:47:08.896Z,6.00
2023-05-23T04:49:38.344Z,7.45
2023-05-23T04:52:07.990Z,6.22
2023-05-23T04:54:37.371Z,6.32
2023-05-23T04:57:06.196Z,5.50
2023-05-23T04:59:34.331Z,3.75
2023-05-23T05:02:02.306Z,7.28
2023-05-23T05:04:30.313Z,6.13
2023-05-23T05:06:58.468Z,8.82
2023-05-23T05:09:27.910Z,7.65
2023-05-23T05:11:55.929Z,7.10
2023-05-23T05:14:23.891Z,6.93
2023-05-23T05:16:52.165Z,8.77
2023-05-23T05:19:21.136Z,6.28
2023-05-23T05:21:49.083Z,9.82
2023-05-23T05:24:17.311Z,7.68
2023-05-23T05:26:46.960Z,4.40
2023-05-23T05:29:14.988Z,5.20
2023-05-23T05:31:43.495Z,4.25
2023-05-23T05:34:11.614Z,6.35
2023-05-23T05:36:45.931Z,7.57
2023-05-23T05:39:14.675Z,5.50
2023-05-23T05:41:44.302Z,4.93
2023-05-23T05:44:17.698Z,5.53
2023-05-23T05:46:46.699Z,7.10
2023-05-23T05:49:15.091Z,5.60
2023-05-23T05:51:43.303Z,6.22
2023-05-23T05:54:11.310Z,8.25
2023-05-23T05:56:40.048Z,6.03
2023-05-23T05:59:08.409Z,7.35
2023-05-23T06:01:39.169Z,16.33
2023-05-23T06:04:08.055Z,9.77
2023-05-23T06:06:36.529Z,14.65
2023-05-23T06:09:05.263Z,6.97
2023-05-23T06:11:35.095Z,6.63
2023-05-23T06:14:04.060Z,8.05
2023-05-23T06:16:36.886Z,8.13
2023-05-23T06:19:06.847Z,6.05
2023-05-23T06:21:36.341Z,4.05
2023-05-23T06:24:05.763Z,7.32
2023-05-23T06:26:37.783Z,6.05
2023-05-23T06:29:06.548Z,8.80
2023-05-23T06:31:37.570Z,6.22
2023-05-23T06:34:07.504Z,11.48
2023-05-23T06:36:36.470Z,8.70
2023-05-23T06:39:10.040Z,4.07
2023-05-23T06:41:41.225Z,5.85
2023-05-23T06:44:16.023Z,7.30
2023-05-23T06:46:51.103Z,7.20
2023-05-23T06:49:27.151Z,9.20
2023-05-23T06:51:58.964Z,4.10
2023-05-23T06:54:35.143Z,6.18
2023-05-23T06:57:05.325Z,5.25
2023-05-23T06:59:43.467Z,6.13
2023-05-23T07:02:15.584Z,9.05
2023-05-23T07:07:22.205Z,5.85
2023-05-23T07:09:51.743Z,5.80
2023-05-23T07:12:24.541Z,6.85
2023-05-23T07:14:54.536Z,7.20
2023-05-23T07:17:30.632Z,5.60
2023-05-23T07:20:05.800Z,2.55
2023-05-23T07:25:08.640Z,4.95
2023-05-23T07:27:40.586Z,8.00
2023-05-23T07:30:18.332Z,7.22
2023-05-23T07:32:52.510Z,8.52
2023-05-23T07:35:26.834Z,9.70
2023-05-23T07:37:59.895Z,7.32
2023-05-23T07:40:30.716Z,7.85
2023-05-23T07:43:00.299Z,6.00
2023-05-23T07:45:31.186Z,8.50
2023-05-23T07:48:06.184Z,9.77
2023-05-23T07:50:44.500Z,7.28
2023-05-23T07:53:18.703Z,10.75
2023-05-23T07:55:56.425Z,11.23
2023-05-23T07:58:28.167Z,8.75
2023-05-23T08:01:03.744Z,9.10
2023-05-23T08:03:46.804Z,7.35
2023-05-23T08:06:17.378Z,10.20
2023-05-23T08:08:53.384Z,8.77
2023-05-23T08:11:27.688Z,12.65
2023-05-23T08:14:05.088Z,8.73
2023-05-23T08:16:43.136Z,14.18
2023-05-23T08:19:24.972Z,10.65
2023-05-23T08:22:02.581Z,9.90
2023-05-23T08:24:37.281Z,13.05
2023-05-23T08:27:10.020Z,10.57
2023-05-23T08:29:45.638Z,15.18
2023-05-23T08:32:24.909Z,8.52
2023-05-23T08:34:57.435Z,11.15
2023-05-23T08:37:31.308Z,11.20
2023-05-23T08:40:04.268Z,8.80
2023-05-23T08:42:42.203Z,9.82
2023-05-23T08:45:23.322Z,9.80
2023-05-23T08:48:04.402Z,11.07
2023-05-23T08:50:34.949Z,10.63
2023-05-23T08:53:22.803Z,9.18
2023-05-23T08:56:02.480Z,8.93
2023-05-23T08:58:34.424Z,11.55
2023-05-23T09:01:10.833Z,11.93
2023-05-23T09:03:43.041Z,12.68
2023-05-23T09:06:17.399Z,10.80
2023-05-23T09:08:50.852Z,10.82
2023-05-23T09:11:24.853Z,12.67
2023-05-23T09:14:12.860Z,10.40
2023-05-23T09:16:45.578Z,9.75
2023-05-23T09:19:23.303Z,9.85
2023-05-23T09:21:56.241Z,15.52
2023-05-23T09:24:40.679Z,11.85
2023-05-23T09:27:21.066Z,9.88
2023-05-23T09:29:53.571Z,11.25
2023-05-23T09:32:26.516Z,11.40
2023-05-23T09:35:06.081Z,9.70
2023-05-23T09:37:53.585Z,11.82
2023-05-23T09:40:38.949Z,12.23
2023-05-23T09:43:08.564Z,10.52
2023-05-23T09:45:48.615Z,11.10
2023-05-23T09:48:30.946Z,12.65
2023-05-23T09:51:15.068Z,13.40
2023-05-23T09:53:50.333Z,11.48
2023-05-23T09:59:11.966Z,10.73
2023-05-23T10:02:02.736Z,14.07
2023-05-23T10:05:04.213Z,8.48
2023-05-23T10:07:38.217Z,12.43
2023-05-23T10:10:25.616Z,12.00
2023-05-23T10:13:21.295Z,11.55
2023-05-23T10:16:15.032Z,13.63
2023-05-23T10:19:06.208Z,9.55
2023-05-23T10:22:22.865Z,11.77
2023-05-23T10:32:33.739Z,12.85
2023-05-23T10:35:52.198Z,15.65
2023-05-23T10:42:32.722Z,11.13
2023-05-23T10:46:04.730Z,9.70
2023-05-23T10:49:14.528Z,8.73
2023-05-23T10:52:25.835Z,12.25
2023-05-23T10:55:22.083Z,12.13
2023-05-23T10:58:33.036Z,11.15
2023-05-23T11:01:25.307Z,13.55
2023-05-23T11:04:12.529Z,14.48
2023-05-23T11:06:55.776Z,9.95
2023-05-23T11:09:35.269Z,11.80
2023-05-23T11:12:16.253Z,14.95
2023-05-23T11:15:08.991Z,12.25
2023-05-23T11:18:02.268Z,15.00
2023-05-23T11:20:41.728Z,11.63
2023-05-23T11:23:41.300Z,12.18
2023-05-23T11:26:37.072Z,16.10
2023-05-23T11:29:32.669Z,16.17
2023-05-23T11:32:19.858Z,17.35
2023-05-23T11:35:09.093Z,17.55
2023-05-23T11:37:57.821Z,16.88
2023-05-23T11:40:41.412Z,15.88
2023-05-23T11:43:27.876Z,19.17
2023-05-23T11:46:14.571Z,18.48
2023-05-23T11:48:58.576Z,19.00
2023-05-23T11:56:23.334Z,14.52
2023-05-23T12:10:15.138Z,17.27
2023-05-23T12:28:55.145Z,19.10
2023-05-23T13:19:54.546Z,10.77
2023-05-23T13:22:22.282Z,14.15
2023-05-23T13:24:50.101Z,14.55
2023-05-23T13:27:17.888Z,15.55
2023-05-23T13:29:45.661Z,16.52
2023-05-23T13:32:13.460Z,15.65
2023-05-23T13:34:41.298Z,14.43
2023-05-23T13:37:10.400Z,16.73
2023-05-23T13:39:38.146Z,14.00
2023-05-23T13:42:08.755Z,13.65
2023-05-23T13:44:37.261Z,14.70
2023-05-23T13:47:13.603Z,14.32
2023-05-23T13:49:41.810Z,13.68
2023-05-23T13:52:11.368Z,13.57
2023-05-23T13:54:39.353Z,19.02
2023-05-23T13:57:07.698Z,16.63
2023-05-23T13:59:36.632Z,14.95
2023-05-23T14:02:04.451Z,15.18
2023-05-23T14:04:33.835Z,19.00
2023-05-23T14:07:01.571Z,17.98
2023-05-23T14:09:30.788Z,31.05
2023-05-23T14:11:58.530Z,51.08
2023-05-23T14:14:26.924Z,20.95
2023-05-23T14:16:54.750Z,19.88
2023-05-23T14:19:22.967Z,16.05
2023-05-23T14:21:50.733Z,20.55
2023-05-23T14:24:18.560Z,15.75
2023-05-23T14:26:48.244Z,14.40
2023-05-23T14:29:15.993Z,12.85
2023-05-23T14:31:43.745Z,15.38
2023-05-23T14:34:11.532Z,11.07
2023-05-23T14:36:39.295Z,18.42
2023-05-23T14:39:10.614Z,14.73
2023-05-23T14:41:38.693Z,17.67
2023-05-23T14:44:07.891Z,10.77
2023-05-23T14:46:35.839Z,14.60
2023-05-23T14:49:03.748Z,13.68
2023-05-23T14:51:44.703Z,11.80
2023-05-23T14:54:15.827Z,14.75
2023-05-23T14:56:43.706Z,13.32
2023-05-23T14:59:12.808Z,15.13
2023-05-23T15:01:41.633Z,12.45
2023-05-23T15:04:10.123Z,11.38
2023-05-23T15:06:40.297Z,14.95
2023-05-23T15:09:10.432Z,6.95
2023-05-23T15:11:40.262Z,10.93
2023-05-23T15:14:08.054Z,13.48
2023-05-23T15:16:37.399Z,11.02
2023-05-23T15:19:05.937Z,15.65
2023-05-23T15:21:33.951Z,10.93
2023-05-23T15:24:01.732Z,11.18
2023-05-23T15:26:30.452Z,11.65
2023-05-23T15:28:58.197Z,13.70
2023-05-23T15:31:25.960Z,14.00
2023-05-23T15:33:55.133Z,12.82
2023-05-23T15:36:22.876Z,11.13
2023-05-23T15:38:50.634Z,11.18
2023-05-23T15:41:18.758Z,21.20
2023-05-23T15:43:46.524Z,13.05
2023-05-23T15:46:14.333Z,11.73
2023-05-23T15:48:42.518Z,14.43
2023-05-23T15:51:12.221Z,14.20
2023-05-23T15:53:58.920Z,13.57
2023-05-23T15:56:27.577Z,12.10
2023-05-23T15:58:55.472Z,11.32
2023-05-23T16:01:23.336Z,10.05
2023-05-23T16:03:51.829Z,12.65
2023-05-23T16:06:21.039Z,13.88
2023-05-23T16:08:48.828Z,14.07
2023-05-23T16:11:16.771Z,11.38
2023-05-23T16:13:44.477Z,8.75
2023-05-23T16:16:12.310Z,12.13
2023-05-23T16:18:40.660Z,12.18
2023-05-23T16:21:08.467Z,11.50
2023-05-23T16:23:37.643Z,13.60
2023-05-23T16:26:05.826Z,12.15
2023-05-23T16:28:33.529Z,9.55
2023-05-23T16:31:01.360Z,8.05
2023-05-23T16:33:29.090Z,12.85
2023-05-23T16:35:57.078Z,11.65
2023-05-23T16:38:24.860Z,10.93
2023-05-23T16:40:53.966Z,13.90
2023-05-23T16:43:21.708Z,11.60
2023-05-23T16:45:49.695Z,11.93
2023-05-23T16:48:18.220Z,13.45
2023-05-23T16:50:46.029Z,13.60
2023-05-23T16:53:13.906Z,12.57
2023-05-23T16:55:41.895Z,14.13
2023-05-23T16:58:12.211Z,12.60
2023-05-23T17:00:40.037Z,12.65
2023-05-23T17:03:08.236Z,14.68
2023-05-23T17:05:37.175Z,7.60
2023-05-23T17:08:04.892Z,10.13
2023-05-23T17:10:32.867Z,8.40
2023-05-23T17:13:00.875Z,10.30
2023-05-23T17:15:30.225Z,8.70
2023-05-23T17:17:58.029Z,9.68
2023-05-23T17:20:26.819Z,8.60
2023-05-23T17:22:54.939Z,9.13
2023-05-23T17:25:23.057Z,10.45
2023-05-23T17:27:50.816Z,10.75
2023-05-23T17:30:19.087Z,9.23
2023-05-23T17:32:49.355Z,10.02
2023-05-23T17:35:17.153Z,11.70
2023-05-23T17:37:45.074Z,12.30
2023-05-23T17:40:13.988Z,12.40
2023-05-23T17:42:43.203Z,10.93
2023-05-23T17:45:11.843Z,9.10
2023-05-23T17:47:39.641Z,10.15
2023-05-23T17:50:11.189Z,13.05
2023-05-23T17:52:39.018Z,11.88
2023-05-23T17:55:07.970Z,10.75
2023-05-23T17:57:35.771Z,9.63
2023-05-23T18:00:03.779Z,8.88
2023-05-23T18:02:31.593Z,10.63
2023-05-23T18:05:00.239Z,8.25
2023-05-23T18:07:29.672Z,8.68
2023-05-23T18:09:59.521Z,7.90
2023-05-23T18:12:27.357Z,8.50
2023-05-23T18:14:55.120Z,10.38
2023-05-23T18:17:24.589Z,12.93
2023-05-23T18:19:52.425Z,11.25
2023-05-23T18:22:21.259Z,11.00
2023-05-23T18:24:50.368Z,9.27
2023-05-23T18:27:18.110Z,10.50
2023-05-23T18:29:45.985Z,9.98
2023-05-23T18:32:14.441Z,9.15
2023-05-23T18:34:42.320Z,5.45
2023-05-23T18:37:10.298Z,10.65
2023-05-23T18:39:38.595Z,7.60
2023-05-23T18:42:08.254Z,13.20
2023-05-23T18:44:36.289Z,10.38
2023-05-23T18:47:04.167Z,9.98
2023-05-23T18:49:31.912Z,9.20
2023-05-23T18:51:59.746Z,11.68
2023-05-23T18:54:27.518Z,12.70
2023-05-23T18:56:55.267Z,8.35
2023-05-23T18:59:24.373Z,10.25
2023-05-23T19:01:53.085Z,11.02
2023-05-23T19:04:21.224Z,13.68
2023-05-23T19:06:49.429Z,8.05
2023-05-23T19:09:17.699Z,7.38
2023-05-23T19:11:45.579Z,11.95
2023-05-23T19:14:13.611Z,8.63
2023-05-23T19:16:42.842Z,11.38
2023-05-23T19:19:11.334Z,9.48
2023-05-23T19:21:39.166Z,7.85
2023-05-23T19:24:08.926Z,11.60
2023-05-23T19:26:37.719Z,15.65
2023-05-23T19:29:06.179Z,9.63
2023-05-23T19:31:34.250Z,5.80
2023-05-23T19:34:03.378Z,8.73
2023-05-23T19:36:31.410Z,11.55
2023-05-23T19:38:59.369Z,8.23
2023-05-23T19:41:27.363Z,12.75
2023-05-23T19:43:55.162Z,10.13
2023-05-23T19:46:23.436Z,10.32
2023-05-23T19:48:51.312Z,8.95
2023-05-23T19:51:21.017Z,10.10
2023-05-23T19:53:48.818Z,9.18
2023-05-23T19:56:17.597Z,8.98
2023-05-23T19:58:45.510Z,9.38
2023-05-23T20:01:13.420Z,10.18
2023-05-23T20:03:41.305Z,9.35
2023-05-23T20:06:09.287Z,9.95
2023-05-23T20:08:38.387Z,10.60
2023-05-23T20:11:06.702Z,7.72
2023-05-23T20:13:34.473Z,7.47
2023-05-23T20:16:02.375Z,13.32
2023-05-23T20:18:30.161Z,9.23
2023-05-23T20:20:57.904Z,10.30
2023-05-23T20:23:25.660Z,8.60
2023-05-23T20:25:54.783Z,10.25
2023-05-23T20:28:22.665Z,11.00
2023-05-23T20:30:50.659Z,9.80
2023-05-23T20:33:18.547Z,6.28
2023-05-23T20:35:48.274Z,8.80
2023-05-23T20:38:18.689Z,8.43
2023-05-23T20:40:49.569Z,10.77
2023-05-23T20:43:22.208Z,11.30
2023-05-23T20:45:50.434Z,10.77
2023-05-23T20:48:18.214Z,6.82
2023-05-23T20:50:46.185Z,9.00
2023-05-23T20:53:13.970Z,7.32
2023-05-23T20:55:42.482Z,8.75
2023-05-23T20:58:10.459Z,8.25
2023-05-23T21:00:39.833Z,6.10
2023-05-23T21:03:07.929Z,10.77
2023-05-23T21:05:35.797Z,7.57
2023-05-23T21:08:04.483Z,8.18
2023-05-23T21:10:32.648Z,12.40
2023-05-23T21:13:00.917Z,8.57
2023-05-23T21:15:29.195Z,6.28
2023-05-23T21:17:58.735Z,8.20
2023-05-23T21:20:26.905Z,7.82
2023-05-23T21:22:54.820Z,8.73
2023-05-23T21:25:22.619Z,8.65
2023-05-23T21:27:50.455Z,8.30
2023-05-23T21:30:18.591Z,6.80
2023-05-23T21:32:46.654Z,4.63
2023-05-23T21:35:15.812Z,8.80
2023-05-23T21:37:43.536Z,6.20
2023-05-23T21:40:11.988Z,6.00
2023-05-23T21:42:39.725Z,7.70
2023-05-23T21:45:09.240Z,8.02
2023-05-23T21:47:37.213Z,6.90
2023-05-23T21:50:05.514Z,11.15
2023-05-23T21:52:34.601Z,6.43
2023-05-23T21:55:02.359Z,5.90
2023-05-23T21:57:30.095Z,6.38
2023-05-23T21:59:57.848Z,4.20
2023-05-23T22:02:25.642Z,10.05
2023-05-23T22:04:53.454Z,8.95
2023-05-23T22:07:25.042Z,9.07
2023-05-23T22:09:56.131Z,6.18
2023-05-23T22:12:23.910Z,5.60
2023-05-23T22:14:51.920Z,9.93
2023-05-23T22:17:21.963Z,5.82
2023-05-23T22:19:51.717Z,10.10
2023-05-23T22:22:19.588Z,8.35
2023-05-23T22:24:47.354Z,7.53
2023-05-23T22:27:16.456Z,8.23
2023-05-23T22:29:44.195Z,9.40
2023-05-23T22:32:11.990Z,7.88
2023-05-23T22:34:39.727Z,7.38
2023-05-23T22:37:07.851Z,7.82
2023-05-23T22:39:35.677Z,5.68
2023-05-23T22:42:03.651Z,6.28
2023-05-23T22:44:32.753Z,9.65
2023-05-23T22:47:00.658Z,10.45
2023-05-23T22:49:29.919Z,4.78
2023-05-23T22:51:59.144Z,6.78
2023-05-23T22:54:26.973Z,8.57
2023-05-23T22:56:55.674Z,4.25
2023-05-23T22:59:23.444Z,9.77
2023-05-23T23:01:52.540Z,5.63
2023-05-23T23:04:23.453Z,4.32
2023-05-23T23:06:53.543Z,7.43
2023-05-23T23:09:21.543Z,5.47
2023-05-23T23:11:49.281Z,7.43
2023-05-23T23:14:17.019Z,6.88
2023-05-23T23:16:46.425Z,6.28
2023-05-23T23:19:16.590Z,6.68
2023-05-23T23:21:44.490Z,5.63
2023-05-23T23:24:13.564Z,5.78
2023-05-23T23:26:41.316Z,8.05
2023-05-23T23:29:09.026Z,8.00
2023-05-23T23:31:37.140Z,8.30
2023-05-23T23:34:04.972Z,3.78
2023-05-23T23:36:34.179Z,6.45
2023-05-23T23:39:01.923Z,7.95
2023-05-23T23:41:29.665Z,5.25
2023-05-23T23:43:57.425Z,8.30
2023-05-23T23:46:25.240Z,6.43
2023-05-23T23:48:53.156Z,5.00
2023-05-23T23:51:21.051Z,7.20
2023-05-23T23:53:53.198Z,9.02
2023-05-23T23:56:22.141Z,7.13
2023-05-23T23:58:49.906Z,9.95
